createdAt,value
2019-05-21T03:02:34.997Z,8.40
2019-05-21T03:05:04.220Z,8.50
2019-05-21T03:07:32.578Z,8.50
2019-05-21T03:10:00.955Z,8.50
2019-05-21T03:12:29.321Z,8.40
2019-05-21T03:14:57.698Z,8.50
2019-05-21T03:17:26.068Z,8.50
2019-05-21T03:19:54.424Z,8.50
2019-05-21T03:22:22.793Z,8.50
2019-05-21T03:24:51.155Z,8.50
2019-05-21T03:27:19.544Z,8.50
2019-05-21T03:29:47.947Z,8.50
2019-05-21T03:32:16.338Z,8.50
2019-05-21T03:34:44.695Z,8.50
2019-05-21T03:37:13.066Z,8.50
2019-05-21T03:39:41.408Z,8.50
2019-05-21T03:42:09.714Z,8.50
2019-05-21T03:44:38.059Z,8.50
2019-05-21T03:47:06.461Z,8.50
2019-05-21T03:49:34.812Z,8.50
2019-05-21T03:52:03.229Z,8.50
2019-05-21T03:54:31.551Z,8.40
2019-05-21T03:56:59.926Z,8.50
2019-05-21T03:59:28.294Z,8.50
2019-05-21T04:01:56.672Z,8.50
2019-05-21T04:04:25.035Z,8.50
2019-05-21T04:06:53.411Z,8.50
2019-05-21T04:09:21.844Z,8.50
2019-05-21T04:11:53.062Z,8.40
2019-05-21T04:14:38.414Z,8.40
2019-05-21T04:17:08.429Z,8.40
2019-05-21T04:19:44.165Z,8.40
2019-05-21T04:22:16.708Z,8.40
2019-05-21T04:24:45.521Z,8.40
2019-05-21T04:27:14.333Z,8.30
2019-05-21T04:29:42.994Z,8.30
2019-05-21T04:32:11.381Z,8.40
2019-05-21T04:34:39.741Z,8.30
2019-05-21T04:37:11.446Z,8.40
2019-05-21T04:39:38.120Z,8.30
2019-05-21T04:42:06.573Z,8.30
2019-05-21T04:44:34.927Z,8.20
2019-05-21T04:47:03.302Z,8.20
2019-05-21T04:49:31.688Z,8.20
2019-05-21T04:52:00.227Z,8.20
2019-05-21T04:54:28.603Z,8.10
2019-05-21T04:56:56.959Z,8.10
2019-05-21T04:59:25.333Z,8.10
2019-05-21T05:01:53.698Z,8.10
2019-05-21T05:04:22.378Z,8.10
2019-05-21T05:06:50.855Z,8.20
2019-05-21T05:09:19.224Z,8.20
2019-05-21T05:11:47.599Z,8.00
2019-05-21T05:14:15.973Z,8.10
2019-05-21T05:16:44.320Z,8.10
2019-05-21T05:19:12.707Z,8.10
2019-05-21T05:21:41.073Z,8.10
2019-05-21T05:24:09.448Z,8.10
2019-05-21T05:26:37.801Z,8.00
2019-05-21T05:29:06.200Z,8.10
2019-05-21T05:31:34.700Z,8.10
2019-05-21T05:34:03.092Z,8.20
2019-05-21T05:36:31.488Z,8.10
2019-05-21T05:38:59.981Z,8.10
2019-05-21T05:41:28.348Z,8.10
2019-05-21T05:43:56.720Z,8.20
2019-05-21T05:46:25.068Z,8.10
2019-05-21T09:46:11.891Z,8.30
2019-05-21T09:48:40.136Z,8.20
2019-05-21T09:51:08.435Z,8.30
2019-05-21T09:53:36.666Z,8.10
2019-05-21T09:56:06.543Z,8.20
2019-05-21T09:58:36.392Z,8.20
2019-05-21T10:01:11.934Z,8.30
2019-05-21T10:03:50.747Z,8.20
2019-05-21T10:06:18.958Z,8.00
2019-05-21T10:08:47.423Z,8.10
2019-05-21T10:11:15.647Z,8.00
2019-05-21T10:13:43.881Z,8.10
2019-05-21T10:16:12.114Z,7.90
2019-05-21T10:18:40.334Z,7.90
2019-05-21T10:21:08.619Z,8.00
2019-05-21T10:23:36.833Z,8.10
2019-05-21T10:26:05.054Z,8.00
2019-05-21T10:28:33.273Z,8.10
2019-05-21T10:31:01.501Z,8.20
2019-05-21T10:33:29.736Z,8.40
2019-05-21T10:35:57.967Z,8.40
2019-05-21T10:38:26.180Z,8.20
2019-05-21T10:40:54.438Z,8.10
2019-05-21T10:43:22.648Z,8.30
2019-05-21T10:45:50.930Z,8.40
2019-05-21T10:48:19.160Z,8.30
2019-05-21T10:50:47.377Z,8.40
2019-05-21T10:53:15.593Z,8.30
2019-05-21T10:55:43.806Z,8.30
2019-05-21T10:58:12.034Z,8.40
2019-05-21T11:00:40.258Z,8.30
2019-05-21T11:03:16.367Z,8.30
2019-05-21T11:05:49.071Z,8.30
2019-05-21T11:08:25.408Z,8.30
2019-05-21T11:10:47.243Z,8.40
2019-05-21T11:13:15.724Z,8.40
2019-05-21T11:15:44.009Z,8.40
2019-05-21T11:18:12.380Z,8.50
2019-05-21T11:20:41.440Z,8.60
2019-05-21T11:23:09.662Z,8.70
2019-05-21T11:25:37.867Z,8.90
2019-05-21T11:28:06.494Z,8.90
2019-05-21T11:30:34.880Z,9.00
2019-05-21T11:33:03.118Z,8.90
2019-05-21T11:35:31.347Z,9.10
2019-05-21T11:37:59.575Z,8.90
2019-05-21T11:40:28.370Z,8.90
2019-05-21T11:42:56.608Z,8.80
2019-05-21T11:45:32.320Z,8.80
2019-05-21T11:47:55.044Z,8.70
2019-05-21T11:50:23.357Z,8.80
2019-05-21T11:52:51.590Z,8.90
2019-05-21T11:55:19.822Z,9.10
2019-05-21T11:57:48.042Z,9.20
2019-05-21T12:00:21.327Z,9.30
2019-05-21T12:02:47.163Z,9.20
2019-05-21T12:05:15.388Z,9.30
2019-05-21T12:07:43.618Z,9.40
2019-05-21T12:10:13.171Z,9.50
2019-05-21T12:12:41.448Z,9.60
2019-05-21T12:15:09.691Z,9.50
2019-05-21T12:17:37.912Z,9.40
2019-05-21T12:20:06.865Z,9.50
2019-05-21T12:22:35.087Z,9.50
2019-05-21T12:25:03.585Z,9.40
2019-05-21T12:27:31.802Z,9.50
2019-05-21T12:30:00.030Z,9.50
2019-05-21T12:32:28.250Z,9.50
2019-05-21T12:34:56.467Z,9.60
2019-05-21T12:37:24.756Z,9.50
2019-05-21T12:39:52.982Z,9.70
2019-05-21T12:42:21.383Z,9.60
2019-05-21T12:44:49.615Z,9.60
2019-05-21T12:47:17.814Z,9.50
2019-05-21T12:49:46.028Z,9.80
2019-05-21T12:52:14.270Z,9.60
2019-05-21T12:54:42.487Z,9.60
2019-05-21T12:57:10.709Z,9.40
2019-05-21T12:59:38.942Z,9.30
2019-05-21T13:02:07.173Z,9.30
2019-05-21T13:04:35.395Z,9.20
2019-05-21T13:07:03.656Z,9.40
2019-05-21T13:09:33.228Z,9.30
2019-05-21T13:12:01.520Z,9.40
2019-05-21T13:14:29.752Z,9.30
2019-05-21T13:16:58.027Z,9.60
2019-05-21T13:19:26.262Z,9.70
2019-05-21T13:21:54.490Z,9.50
2019-05-21T13:24:22.753Z,9.40
2019-05-21T13:26:51.006Z,9.50
2019-05-21T13:29:19.249Z,9.70
2019-05-21T13:31:47.464Z,9.60
2019-05-21T13:34:15.677Z,9.60
2019-05-21T13:36:43.884Z,9.50
2019-05-21T13:39:12.125Z,9.50
2019-05-21T13:41:40.338Z,9.70
2019-05-21T13:44:08.567Z,9.50
2019-05-21T13:46:36.817Z,9.60
2019-05-21T13:49:05.156Z,9.70
2019-05-21T13:51:33.371Z,9.90
2019-05-21T13:54:01.637Z,9.90
2019-05-21T13:56:29.922Z,10.00
2019-05-21T13:58:58.235Z,10.10
2019-05-21T14:01:40.263Z,10.20
2019-05-21T14:03:56.660Z,10.10
2019-05-21T14:06:24.889Z,9.90
2019-05-21T14:08:53.117Z,10.10
2019-05-21T14:11:21.359Z,10.10
2019-05-21T14:13:49.575Z,10.20
2019-05-21T14:16:17.802Z,10.00
2019-05-21T14:18:46.038Z,10.00
2019-05-21T14:21:14.274Z,9.80
2019-05-21T14:23:42.486Z,9.90
2019-05-21T14:26:10.958Z,9.90
2019-05-21T14:28:39.312Z,9.70
2019-05-21T14:31:07.548Z,9.80
2019-05-21T14:33:35.881Z,9.80
2019-05-21T14:36:04.144Z,9.80
2019-05-21T14:38:32.354Z,9.70
2019-05-21T14:41:00.604Z,9.80
2019-05-21T14:43:28.827Z,9.70
2019-05-21T14:45:57.070Z,9.70
2019-05-21T14:48:25.292Z,9.80
2019-05-21T14:50:53.526Z,9.70
2019-05-21T14:53:21.927Z,9.70
2019-05-21T14:55:50.315Z,9.80
2019-05-21T14:58:18.596Z,9.90
2019-05-21T15:00:46.863Z,9.80
2019-05-21T15:03:24.975Z,9.90
2019-05-21T15:05:45.028Z,10.00
2019-05-21T15:08:13.263Z,10.10
2019-05-21T15:10:48.590Z,10.10
2019-05-21T15:13:11.458Z,10.20
2019-05-21T15:15:39.703Z,10.10
2019-05-21T15:18:07.932Z,10.20
2019-05-21T15:20:41.300Z,10.30
2019-05-21T15:23:09.530Z,10.30
2019-05-21T15:25:37.758Z,10.20
2019-05-21T15:28:06.003Z,10.20
2019-05-21T15:30:34.212Z,10.20
2019-05-21T15:33:02.458Z,10.10
2019-05-21T15:35:30.687Z,10.20
2019-05-21T15:37:58.922Z,10.20
2019-05-21T15:40:27.144Z,10.30
2019-05-21T15:42:55.372Z,10.30
2019-05-21T15:45:23.603Z,10.40
2019-05-21T15:47:51.843Z,10.60
2019-05-21T15:50:20.068Z,10.60
2019-05-21T15:52:48.314Z,10.70
2019-05-21T15:55:16.540Z,10.80
2019-05-21T15:57:44.754Z,10.70
2019-05-21T16:00:13.043Z,10.80
2019-05-21T16:02:41.282Z,10.80
2019-05-21T16:05:09.491Z,10.90
2019-05-21T16:07:37.732Z,11.00
2019-05-21T16:10:06.426Z,11.00
2019-05-21T16:12:34.671Z,11.10
2019-05-21T16:15:02.961Z,11.10
2019-05-21T16:17:31.313Z,11.10
2019-05-21T16:19:59.583Z,11.20
2019-05-21T16:22:27.823Z,11.30
2019-05-21T16:24:56.032Z,11.20
2019-05-21T16:27:24.295Z,11.20
2019-05-21T16:29:52.599Z,11.10
2019-05-21T16:32:20.832Z,11.10
2019-05-21T16:34:49.066Z,11.10
2019-05-21T16:37:17.546Z,11.10
2019-05-21T16:39:45.857Z,11.10
2019-05-21T16:42:14.114Z,11.20
2019-05-21T16:44:42.323Z,11.20
2019-05-21T16:47:10.621Z,11.10
2019-05-21T16:49:38.869Z,11.30
2019-05-21T16:52:07.167Z,11.50
2019-05-21T16:54:35.406Z,11.50
2019-05-21T16:57:03.636Z,11.70
2019-05-21T16:59:31.891Z,11.80
2019-05-21T17:02:00.193Z,12.30
2019-05-21T17:04:28.443Z,12.10
2019-05-21T17:06:56.701Z,12.00
2019-05-21T17:09:28.129Z,11.70
2019-05-21T17:11:59.915Z,11.70
2019-05-21T17:14:24.886Z,11.70
2019-05-21T17:16:53.116Z,11.80
2019-05-21T17:19:21.355Z,11.80
2019-05-21T17:21:49.955Z,11.70
2019-05-21T17:24:18.185Z,11.60
2019-05-21T17:26:46.417Z,11.70
2019-05-21T17:29:14.653Z,11.50
2019-05-21T17:31:42.950Z,11.50
2019-05-21T17:34:11.189Z,11.60
2019-05-21T17:36:39.407Z,11.80
2019-05-21T17:39:07.639Z,11.60
2019-05-21T17:41:35.864Z,11.60
2019-05-21T17:44:04.087Z,11.40
2019-05-21T17:46:32.326Z,11.50
2019-05-21T17:49:00.551Z,11.30
2019-05-21T17:51:28.760Z,11.20
2019-05-21T17:53:56.991Z,11.10
2019-05-21T17:56:25.207Z,11.10
2019-05-21T17:58:53.448Z,11.10
2019-05-21T18:01:21.936Z,11.10
2019-05-21T18:03:50.223Z,11.00
2019-05-21T18:06:18.635Z,10.90
2019-05-21T18:08:47.287Z,10.90
2019-05-21T18:11:17.229Z,10.80
2019-05-21T18:13:48.043Z,10.90
2019-05-21T18:16:16.771Z,11.00
2019-05-21T18:18:45.054Z,11.00
2019-05-21T18:21:13.385Z,11.00
2019-05-21T18:23:41.666Z,10.90
2019-05-21T18:26:09.882Z,11.00
2019-05-21T18:28:38.171Z,10.90
2019-05-21T18:31:06.618Z,10.80
2019-05-21T18:33:34.918Z,10.90
2019-05-21T18:36:03.170Z,10.80
2019-05-21T18:38:31.382Z,10.70
2019-05-21T18:40:59.615Z,10.60
2019-05-21T18:43:27.824Z,10.70
2019-05-21T18:45:56.071Z,10.50
2019-05-21T18:48:24.366Z,10.50
2019-05-21T18:50:52.613Z,10.50
2019-05-21T18:53:20.841Z,10.40
2019-05-21T18:55:49.059Z,10.30
2019-05-21T18:58:17.881Z,10.30
2019-05-21T19:00:46.294Z,10.30
2019-05-21T19:03:14.516Z,10.20
2019-05-21T19:05:42.740Z,10.10
2019-05-21T19:08:10.984Z,10.10
2019-05-21T19:10:39.289Z,10.00
2019-05-21T19:13:07.494Z,10.10
2019-05-21T19:15:35.715Z,10.00
2019-05-21T19:18:03.966Z,9.90
2019-05-21T19:20:32.186Z,9.90
2019-05-21T19:23:00.403Z,9.80
2019-05-21T19:25:28.610Z,9.80
2019-05-21T19:27:56.837Z,9.60
2019-05-21T19:30:25.070Z,9.50
2019-05-21T19:32:53.307Z,9.60
2019-05-21T19:35:21.540Z,9.50
2019-05-21T19:37:49.756Z,9.40
2019-05-21T19:40:17.982Z,9.30
2019-05-21T19:42:54.764Z,9.30
2019-05-21T19:45:18.141Z,9.30
2019-05-21T19:47:46.365Z,9.20
2019-05-21T19:50:14.596Z,9.10
2019-05-21T19:52:42.853Z,9.10
2019-05-21T19:55:11.152Z,9.10
2019-05-21T19:57:40.156Z,9.20
2019-05-21T20:00:09.262Z,9.10
2019-05-21T20:02:37.508Z,9.10
2019-05-21T20:05:07.174Z,9.20
2019-05-21T20:07:35.468Z,9.20
2019-05-21T20:10:06.091Z,9.10
2019-05-21T20:12:35.942Z,9.10
2019-05-21T20:15:05.810Z,9.10
2019-05-21T20:17:35.174Z,9.10
2019-05-21T20:20:04.832Z,9.00
2019-05-21T20:22:33.315Z,9.10
2019-05-21T20:25:02.018Z,9.10
2019-05-21T20:27:30.262Z,9.00
2019-05-21T20:30:11.523Z,9.00
2019-05-21T20:32:30.310Z,9.20
2019-05-21T20:34:58.634Z,9.10
2019-05-21T20:37:28.495Z,9.10
2019-05-21T20:39:56.981Z,9.10
2019-05-21T20:42:26.358Z,9.00
2019-05-21T20:44:55.454Z,9.00
2019-05-21T20:47:24.104Z,9.00
2019-05-21T20:49:52.500Z,9.00
2019-05-21T20:52:21.089Z,8.90
2019-05-21T20:54:50.405Z,8.80
2019-05-21T20:57:18.679Z,8.80
2019-05-21T20:59:46.920Z,8.70
2019-05-21T21:02:15.968Z,8.80
2019-05-21T21:04:44.192Z,8.80
2019-05-21T21:07:12.404Z,8.70
2019-05-21T21:09:40.626Z,8.70
2019-05-21T21:12:11.519Z,8.80
2019-05-21T21:14:40.123Z,8.90
2019-05-21T21:17:09.990Z,8.90
2019-05-21T21:19:38.763Z,9.20
2019-05-21T21:22:06.977Z,9.00
2019-05-21T21:24:35.273Z,9.10
2019-05-21T21:27:04.570Z,9.00
2019-05-21T21:29:32.806Z,8.90
2019-05-21T21:32:01.030Z,9.00
2019-05-21T21:34:29.264Z,9.10
2019-05-21T21:36:57.496Z,9.00
2019-05-21T21:39:25.737Z,9.00
2019-05-21T21:41:53.938Z,9.00
2019-05-21T21:44:33.529Z,9.00
2019-05-21T21:46:52.947Z,9.10
2019-05-21T21:49:22.977Z,9.00
2019-05-21T21:51:51.266Z,9.00
2019-05-21T21:54:20.523Z,9.20
2019-05-21T21:56:48.727Z,8.90
2019-05-21T21:59:16.957Z,9.10
2019-05-21T22:01:49.228Z,8.90
2019-05-21T22:04:21.562Z,8.80
2019-05-21T22:06:50.264Z,8.90
2019-05-21T22:09:28.946Z,8.90
2019-05-21T22:11:57.160Z,8.80
2019-05-21T22:14:26.069Z,8.70
2019-05-21T22:16:54.565Z,8.70
2019-05-21T22:19:22.882Z,8.70
2019-05-21T22:21:51.382Z,8.80
2019-05-21T22:24:19.963Z,8.70
2019-05-21T22:26:48.748Z,8.70
2019-05-21T22:29:17.229Z,8.60
2019-05-21T22:31:45.518Z,8.50
2019-05-21T22:34:13.753Z,8.60
2019-05-21T22:36:41.965Z,8.60
2019-05-21T22:39:14.523Z,8.50
2019-05-21T22:41:42.746Z,8.60
2019-05-21T22:44:10.979Z,8.50
2019-05-21T22:46:39.210Z,8.50
2019-05-21T22:49:07.425Z,8.50
2019-05-21T22:51:35.638Z,8.40
2019-05-21T22:54:03.870Z,8.50
2019-05-21T22:56:32.087Z,8.60
2019-05-21T22:59:00.295Z,8.50
2019-05-21T23:01:30.118Z,8.40
2019-05-21T23:03:58.399Z,8.40
2019-05-21T23:06:26.640Z,8.40
2019-05-21T23:08:54.868Z,8.30
2019-05-21T23:11:23.353Z,8.30
2019-05-21T23:13:51.719Z,8.40
2019-05-21T23:16:19.996Z,8.30
2019-05-21T23:18:49.066Z,8.20
2019-05-21T23:21:18.928Z,8.20
2019-05-21T23:23:49.246Z,8.20
2019-05-21T23:26:18.131Z,8.10
2019-05-21T23:28:46.434Z,8.10
2019-05-21T23:31:14.937Z,8.10
2019-05-21T23:33:43.214Z,8.20
2019-05-21T23:36:11.547Z,8.20
2019-05-21T23:38:40.349Z,8.20
2019-05-21T23:41:08.775Z,8.10
2019-05-21T23:43:37.038Z,8.10
2019-05-21T23:46:05.546Z,8.10
2019-05-21T23:48:33.846Z,8.00
2019-05-21T23:51:02.259Z,8.20
2019-05-21T23:53:30.522Z,8.10
2019-05-21T23:55:59.066Z,8.10
2019-05-21T23:58:27.398Z,8.00
